Time;durP1;ratioP1;P1;durP2;ratioP2;P2;SDS_P1;SDS_P2;PMS_P1;PMS_P2;Temp;Humidity;BMP_temperature;BMP_pressure;BME280_temperature;BME280_humidity;BME280_pressure;Samples;Min_cycle;Max_cycle;Signal;HPM_P1;HPM_P2
2023/03/13 00:01:34;;;;;;;2.90;1.92;;;;;;;7.39;59.86;99533.44;5009483;28;97469;-84
2023/03/13 00:04:00;;;;;;;3.38;1.80;;;;;;;7.33;60.19;99521.44;5028092;28;97132;-84
2023/03/13 00:06:31;;;;;;;3.47;1.77;;;;;;;7.49;59.90;99548.72;5010090;28;101407;-84
2023/03/13 00:08:56;;;;;;;3.37;1.73;;;;;;;7.48;60.45;99546.19;5028612;28;98041;-84
2023/03/13 00:11:22;;;;;;;2.45;1.77;;;;;;;7.52;59.99;99544.31;5010977;28;97178;-84
2023/03/13 00:13:47;;;;;;;4.27;1.90;;;;;;;7.56;60.13;99551.97;5045285;27;97094;-83
2023/03/13 00:16:14;;;;;;;2.33;1.60;;;;;;;7.56;60.23;99557.22;5027353;28;100248;-83
2023/03/13 00:18:45;;;;;;;4.07;2.10;;;;;;;7.41;60.26;99522.03;5010338;28;99989;-84
2023/03/13 00:21:11;;;;;;;3.50;1.53;;;;;;;7.51;60.22;99534.78;5009714;28;97218;-83
2023/03/13 00:23:37;;;;;;;2.47;1.60;;;;;;;7.46;60.01;99529.72;5027220;28;96867;-83
2023/03/13 00:26:08;;;;;;;3.13;1.55;;;;;;;7.52;60.21;99533.88;5023444;28;101486;-84
2023/03/13 00:28:35;;;;;;;2.10;1.60;;;;;;;7.57;60.26;99545.88;5026714;27;101161;-83
2023/03/13 00:31:07;;;;;;;2.47;1.70;;;;;;;7.64;60.32;99552.59;5028038;28;97331;-84
2023/03/13 00:33:34;;;;;;;3.63;1.73;;;;;;;7.66;60.45;99549.94;5027682;27;97449;-84
2023/03/13 00:36:01;;;;;;;3.07;1.70;;;;;;;7.63;60.83;99553.50;5009121;28;100381;-84
2023/03/13 00:38:28;;;;;;;3.30;2.00;;;;;;;7.64;60.57;99551.72;5027214;28;101271;-83
2023/03/13 00:41:05;;;;;;;3.38;2.15;;;;;;;7.57;60.77;99543.25;5010279;28;97204;-83
2023/03/13 00:43:31;;;;;;;3.97;1.85;;;;;;;7.62;60.44;99553.53;5027788;28;97268;-83
2023/03/13 00:45:56;;;;;;;4.90;1.98;;;;;;;7.57;60.74;99540.66;5009456;28;101638;-84
2023/03/13 00:48:22;;;;;;;3.73;1.90;;;;;;;7.64;60.97;99552.59;5027268;28;97548;-84
2023/03/13 00:50:48;;;;;;;3.53;1.98;;;;;;;7.67;61.12;99554.25;5028460;27;97017;-83
2023/03/13 00:53:14;;;;;;;4.05;1.88;;;;;;;7.59;61.20;99541.47;5028599;28;97191;-83
2023/03/13 00:55:53;;;;;;;5.65;2.10;;;;;;;7.72;60.84;99557.56;4996904;28;101033;-83
2023/03/13 00:58:19;;;;;;;4.43;2.00;;;;;;;7.65;61.11;99556.03;5019390;27;98426;-83
2023/03/13 01:00:44;;;;;;;3.83;2.20;;;;;;;7.51;60.88;99524.34;5010094;28;97361;-83
2023/03/13 01:03:11;;;;;;;4.83;2.20;;;;;;;7.70;60.92;99557.59;5024990;27;97241;-83
2023/03/13 01:05:36;;;;;;;2.88;1.98;;;;;;;7.76;61.03;99560.91;5025545;28;97893;-83
2023/03/13 01:08:02;;;;;;;2.83;2.10;;;;;;;7.71;60.71;99554.09;5010492;28;101709;-83
2023/03/13 01:10:28;;;;;;;3.92;1.98;;;;;;;7.75;61.00;99551.38;5010012;28;97260;-83
2023/03/13 01:12:53;;;;;;;3.20;2.22;;;;;;;7.71;60.91;99548.03;5025978;27;96849;-83
2023/03/13 01:15:19;;;;;;;4.03;2.67;;;;;;;7.62;61.13;99536.13;5026252;28;98550;-84
2023/03/13 01:17:46;;;;;;;3.03;2.00;;;;;;;7.68;61.31;99542.91;4993446;28;101284;-84
2023/03/13 01:20:12;;;;;;;2.90;2.05;;;;;;;7.71;61.20;99541.03;5043863;27;96879;-84
2023/03/13 01:22:38;;;;;;;3.60;2.17;;;;;;;7.77;61.04;99554.78;5010485;28;96724;-84
2023/03/13 01:25:04;;;;;;;3.13;2.38;;;;;;;7.75;60.89;99554.00;5009965;28;100412;-83
2023/03/13 01:27:30;;;;;;;2.95;1.85;;;;;;;7.81;61.41;99559.84;5006352;28;101218;-84
2023/03/13 01:29:56;;;;;;;3.65;2.10;;;;;;;7.81;60.88;99557.22;5008265;27;97289;-83
2023/03/13 01:32:21;;;;;;;3.35;2.45;;;;;;;7.79;61.75;99556.41;5020799;28;97082;-83
2023/03/13 01:34:47;;;;;;;3.42;2.15;;;;;;;7.70;61.18;99534.09;5020282;28;101153;-83
2023/03/13 01:37:12;;;;;;;3.78;2.15;;;;;;;7.85;61.44;99552.75;5029745;28;101751;-84
2023/03/13 01:39:38;;;;;;;3.00;2.40;;;;;;;7.88;61.74;99556.13;5013444;28;97008;-83
2023/03/13 01:42:04;;;;;;;2.08;1.88;;;;;;;7.81;61.82;99535.47;4996938;28;97747;-83
2023/03/13 01:44:51;;;;;;;4.05;2.70;;;;;;;7.84;62.13;99549.28;5030956;28;97624;-83
2023/03/13 01:47:17;;;;;;;3.83;2.55;;;;;;;7.91;62.02;99549.91;5012103;28;101351;-84
2023/03/13 01:50:05;;;;;;;3.90;2.80;;;;;;;7.86;62.27;99547.47;5010618;28;97125;-83
2023/03/13 01:52:48;;;;;;;2.92;2.38;;;;;;;7.77;62.45;99526.06;5016027;28;97268;-84
2023/03/13 01:55:18;;;;;;;3.25;2.42;;;;;;;7.89;63.03;99555.22;5022491;28;101715;-83
2023/03/13 01:57:49;;;;;;;4.75;2.80;;;;;;;7.91;63.26;99565.59;5011567;27;101548;-84
2023/03/13 02:00:24;;;;;;;5.68;2.90;;;;;;;7.90;63.57;99564.75;5012611;28;96976;-83
2023/03/13 02:02:52;;;;;;;5.70;3.58;;;;;;;7.85;63.73;99561.47;5007829;28;97082;-84
2023/03/13 02:05:20;;;;;;;5.18;3.22;;;;;;;7.92;63.80;99559.47;5012925;28;97186;-84
2023/03/13 02:08:00;;;;;;;5.50;3.10;;;;;;;7.94;64.20;99584.66;4995992;28;101704;-84
2023/03/13 02:10:27;;;;;;;5.63;3.13;;;;;;;7.97;64.58;99582.81;5013340;28;97113;-84
2023/03/13 02:12:56;;;;;;;4.25;3.00;;;;;;;7.97;64.56;99578.47;5029571;27;96799;-83
2023/03/13 02:15:23;;;;;;;3.90;3.00;;;;;;;7.86;65.49;99575.38;5010828;28;100428;-84
2023/03/13 02:17:50;;;;;;;5.82;3.60;;;;;;;7.97;65.63;99582.81;5045711;27;97821;-84
2023/03/13 02:20:21;;;;;;;5.60;3.55;;;;;;;7.85;65.56;99566.69;5026313;28;97185;-84
2023/03/13 02:22:51;;;;;;;6.38;3.90;;;;;;;7.96;66.41;99589.81;5022830;27;97124;-84
2023/03/13 02:25:23;;;;;;;5.03;3.55;;;;;;;7.96;66.51;99589.81;5041411;27;101531;-83
2023/03/13 02:27:57;;;;;;;4.90;3.90;;;;;;;7.94;66.22;99581.16;5012459;28;102273;-84
2023/03/13 02:30:23;;;;;;;6.40;3.67;;;;;;;7.82;66.54;99556.31;5029534;28;97209;-83
2023/03/13 02:32:49;;;;;;;4.97;3.80;;;;;;;8.00;66.41;99586.19;5010668;28;97359;-84
2023/03/13 02:35:17;;;;;;;4.78;3.60;;;;;;;7.96;66.50;99579.34;5011611;28;101249;-84
2023/03/13 02:37:45;;;;;;;6.80;4.15;;;;;;;8.01;66.28;99580.06;5011686;28;101526;-83
2023/03/13 02:40:19;;;;;;;6.07;4.38;;;;;;;7.98;66.02;99574.94;4996843;28;96751;-83
2023/03/13 02:42:47;;;;;;;4.72;3.78;;;;;;;7.99;66.27;99571.41;5028175;27;97441;-84
2023/03/13 02:45:14;;;;;;;5.82;3.92;;;;;;;7.89;65.88;99564.81;4990485;28;100953;-84
2023/03/13 02:47:39;;;;;;;6.43;4.50;;;;;;;7.98;66.06;99571.47;5027332;28;100894;-83
2023/03/13 02:50:05;;;;;;;5.72;4.32;;;;;;;7.89;65.85;99567.44;5022085;27;97215;-84
2023/03/13 02:52:38;;;;;;;6.38;4.43;;;;;;;7.94;66.30;99576.81;4994934;28;97412;-83
2023/03/13 02:55:09;;;;;;;6.07;4.30;;;;;;;7.98;65.66;99574.09;5028719;27;99973;-83
2023/03/13 02:57:35;;;;;;;7.90;4.63;;;;;;;7.98;65.87;99564.47;5010812;28;101657;-83
2023/03/13 03:00:02;;;;;;;5.65;4.10;;;;;;;7.82;65.92;99548.47;5012538;28;97088;-83
2023/03/13 03:02:29;;;;;;;7.43;4.68;;;;;;;7.84;66.22;99562.34;5009466;28;97136;-83
2023/03/13 03:04:55;;;;;;;6.40;4.60;;;;;;;7.58;66.49;99526.69;5008682;28;101655;-84
2023/03/13 03:07:20;;;;;;;7.47;4.20;;;;;;;7.79;66.55;99563.41;5018920;27;101601;-83
2023/03/13 03:09:46;;;;;;;7.53;4.50;;;;;;;7.76;66.89;99563.53;5011272;28;97345;-82
2023/03/13 03:12:16;;;;;;;6.07;4.35;;;;;;;7.74;66.89;99560.09;5029357;27;97245;-82
2023/03/13 03:14:42;;;;;;;8.25;5.53;;;;;;;7.74;66.94;99549.66;5024125;27;101592;-82
2023/03/13 03:17:08;;;;;;;7.50;5.10;;;;;;;7.75;66.83;99546.16;5011561;28;100427;-83
2023/03/13 03:19:33;;;;;;;7.63;5.38;;;;;;;7.81;67.00;99549.38;5023658;27;96881;-82
2023/03/13 03:22:00;;;;;;;9.07;5.53;;;;;;;7.88;66.90;99547.41;5028818;27;96871;-82
2023/03/13 03:24:25;;;;;;;10.55;6.15;;;;;;;7.84;66.82;99538.84;5010297;28;97944;-83
2023/03/13 03:26:51;;;;;;;10.88;6.40;;;;;;;7.85;67.00;99539.69;5006898;28;101158;-83
2023/03/13 03:29:24;;;;;;;11.85;6.38;;;;;;;7.89;66.72;99536.91;5009538;28;97011;-83
2023/03/13 03:31:53;;;;;;;10.30;7.20;;;;;;;7.81;67.02;99519.81;5009003;27;97258;-83
2023/03/13 03:34:19;;;;;;;8.68;6.88;;;;;;;7.86;66.72;99525.72;5012310;28;101329;-82
2023/03/13 03:36:45;;;;;;;9.77;6.68;;;;;;;7.88;67.03;99530.00;5027413;27;102046;-82
2023/03/13 03:39:10;;;;;;;9.75;6.30;;;;;;;7.94;66.91;99547.19;5028675;28;97314;-83
2023/03/13 03:41:36;;;;;;;12.90;7.28;;;;;;;7.92;67.03;99546.41;5025003;27;97338;-82
2023/03/13 03:44:03;;;;;;;9.45;7.00;;;;;;;7.94;66.89;99539.34;5022275;28;101144;-83
2023/03/13 03:46:38;;;;;;;13.68;7.05;;;;;;;8.00;66.96;99541.78;5010977;28;100272;-82
2023/03/13 03:49:04;;;;;;;9.35;6.30;;;;;;;8.03;67.00;99549.50;5018161;28;96922;-82
2023/03/13 03:51:30;;;;;;;11.35;6.93;;;;;;;8.01;67.07;99540.00;5027736;27;96819;-83
2023/03/13 03:53:55;;;;;;;9.48;6.63;;;;;;;8.05;66.95;99539.81;5023088;27;100276;-83
2023/03/13 03:56:21;;;;;;;11.80;7.07;;;;;;;8.01;66.47;99532.16;5010543;28;101326;-83
2023/03/13 03:58:52;;;;;;;12.45;7.43;;;;;;;8.06;66.52;99535.47;5026189;27;97210;-83
2023/03/13 04:01:26;;;;;;;9.38;6.20;;;;;;;8.06;66.46;99531.09;4997823;28;97652;-84
2023/03/13 04:03:52;;;;;;;10.85;5.93;;;;;;;8.14;66.63;99536.03;5010322;28;102026;-83
2023/03/13 04:06:18;;;;;;;13.02;6.55;;;;;;;8.12;66.83;99530.88;5008533;28;101092;-83
2023/03/13 04:08:44;;;;;;;9.75;6.45;;;;;;;7.90;66.58;99486.34;5044674;27;97006;-83
2023/03/13 04:11:13;;;;;;;11.82;6.40;;;;;;;8.18;66.25;99523.72;5012359;28;96931;-83
2023/03/13 04:13:43;;;;;;;14.35;6.65;;;;;;;8.16;66.48;99522.00;5011625;28;99807;-83
2023/03/13 04:16:09;;;;;;;10.93;5.90;;;;;;;8.15;66.49;99512.44;5007614;28;101591;-83
2023/03/13 04:18:35;;;;;;;13.35;6.97;;;;;;;8.18;66.30;99513.25;4992512;28;97300;-83
2023/03/13 04:21:02;;;;;;;15.57;7.38;;;;;;;8.15;66.56;99503.75;4994169;28;97440;-83
2023/03/13 04:23:30;;;;;;;11.27;5.95;;;;;;;8.11;67.02;99499.53;5011293;28;101558;-84
2023/03/13 04:25:56;;;;;;;13.98;6.32;;;;;;;7.89;67.48;99468.13;5026284;28;100321;-83
2023/03/13 04:28:21;;;;;;;9.32;6.20;;;;;;;7.91;67.97;99500.25;5027598;27;97412;-84
2023/03/13 04:30:47;;;;;;;12.30;6.65;;;;;;;7.84;67.68;99486.56;5010600;28;96846;-83
2023/03/13 04:33:51;;;;;;;10.93;6.57;;;;;;;7.83;68.11;99487.50;5015982;27;97769;-83
2023/03/13 04:36:28;;;;;;;13.40;6.70;;;;;;;7.83;68.21;99474.44;4973190;28;101825;-83
2023/03/13 04:39:11;;;;;;;11.95;7.05;;;;;;;7.88;67.71;99469.91;4991689;28;97264;-82
2023/03/13 04:41:58;;;;;;;10.13;6.70;;;;;;;7.86;67.94;99476.94;5023707;28;97559;-83
2023/03/13 04:44:34;;;;;;;13.67;7.00;;;;;;;7.92;68.03;99465.41;5009858;28;101085;-83
2023/03/13 04:47:32;;;;;;;12.27;7.20;;;;;;;7.87;68.06;99469.94;5027575;27;101596;-83
2023/03/13 04:50:15;;;;;;;15.07;8.13;;;;;;;7.89;68.49;99473.34;5007665;27;98150;-83
2023/03/13 04:53:01;;;;;;;12.32;7.72;;;;;;;7.85;68.11;99471.75;5007356;28;98783;-83
2023/03/13 04:55:43;;;;;;;11.63;6.93;;;;;;;7.77;68.76;99458.13;5009194;28;98525;-83
2023/03/13 04:58:26;;;;;;;14.23;7.88;;;;;;;7.87;68.44;99473.41;5024951;28;97596;-84
2023/03/13 05:01:06;;;;;;;12.70;8.43;;;;;;;7.66;68.70;99437.59;5012693;28;96736;-83
2023/03/13 05:03:50;;;;;;;13.40;7.90;;;;;;;7.81;69.08;99465.78;5028009;28;96728;-84
2023/03/13 05:06:48;;;;;;;13.80;7.50;;;;;;;7.80;68.81;99469.31;4990872;28;97732;-83
2023/03/13 05:09:32;;;;;;;12.10;7.13;;;;;;;7.83;69.11;99469.19;5026968;27;97170;-83
2023/03/13 05:12:20;;;;;;;10.98;6.90;;;;;;;7.79;69.14;99464.97;5025846;28;97390;-83
2023/03/13 05:15:01;;;;;;;13.73;7.35;;;;;;;7.81;69.38;99457.94;5015935;28;97170;-84
2023/03/13 05:17:32;;;;;;;13.95;8.48;;;;;;;7.76;68.83;99432.88;5027334;28;97921;-83
2023/03/13 05:20:12;;;;;;;11.43;7.38;;;;;;;7.83;68.88;99445.69;5023236;28;98039;-84
2023/03/13 05:22:45;;;;;;;11.50;7.72;;;;;;;7.86;68.88;99447.34;5013867;28;97151;-84
2023/03/13 05:25:19;;;;;;;14.90;8.25;;;;;;;7.78;69.05;99437.16;5013723;28;97447;-83
2023/03/13 05:28:05;;;;;;;16.33;8.05;;;;;;;7.93;69.09;99449.66;5010091;28;98073;-84
2023/03/13 05:30:57;;;;;;;12.75;7.65;;;;;;;7.90;69.07;99454.13;4992620;28;97820;-82
2023/03/13 05:33:23;;;;;;;13.93;8.75;;;;;;;7.86;69.45;99440.34;5031330;28;97106;-84
2023/03/13 05:36:07;;;;;;;14.00;8.10;;;;;;;7.93;69.20;99435.72;5015482;28;97132;-83
2023/03/13 05:38:58;;;;;;;14.85;8.25;;;;;;;7.98;68.92;99440.81;5029822;27;99378;-83
2023/03/13 05:41:53;;;;;;;14.40;7.72;;;;;;;7.96;69.19;99434.78;4987353;27;97809;-83
2023/03/13 05:44:34;;;;;;;16.17;9.57;;;;;;;7.85;68.83;99417.75;5003909;28;97219;-84
2023/03/13 05:47:17;;;;;;;16.88;8.85;;;;;;;7.98;69.17;99431.19;5015224;28;97102;-83
2023/03/13 05:49:58;;;;;;;17.70;8.77;;;;;;;7.80;69.37;99396.16;5019174;27;101703;-84
2023/03/13 05:52:43;;;;;;;16.38;9.07;;;;;;;7.89;68.88;99400.19;5026176;28;97175;-84
2023/03/13 05:55:29;;;;;;;12.73;8.63;;;;;;;8.02;68.92;99424.94;5030109;27;97113;-86
2023/03/13 05:58:13;;;;;;;19.35;9.80;;;;;;;8.02;69.32;99418.84;5014673;28;97114;-85
2023/03/13 06:00:56;;;;;;;13.75;8.68;;;;;;;8.03;69.19;99423.16;4999953;28;101491;-87
2023/03/13 06:03:40;;;;;;;13.98;7.88;;;;;;;8.11;69.11;99426.34;5024329;28;97847;-87
2023/03/13 06:06:07;;;;;;;15.00;8.65;;;;;;;8.14;69.17;99429.72;5011293;28;96924;-85
2023/03/13 06:08:37;;;;;;;13.73;7.60;;;;;;;8.14;69.18;99423.59;5040522;27;97501;-85
2023/03/13 06:11:03;;;;;;;13.05;8.25;;;;;;;8.19;68.96;99426.91;5027381;28;101535;-85
2023/03/13 06:13:30;;;;;;;16.40;8.25;;;;;;;8.20;69.09;99419.91;5013452;28;97996;-85
2023/03/13 06:16:00;;;;;;;13.85;6.90;;;;;;;8.16;69.24;99417.41;5013460;28;97214;-85
2023/03/13 06:18:46;;;;;;;14.60;7.88;;;;;;;8.26;68.87;99422.28;5013718;28;97410;-84
2023/03/13 06:21:12;;;;;;;13.25;7.55;;;;;;;8.27;69.20;99424.84;5032648;27;101558;-84
2023/03/13 06:23:37;;;;;;;14.60;7.43;;;;;;;8.21;69.28;99404.19;5030832;27;101683;-90
2023/03/13 06:26:03;;;;;;;14.93;6.88;;;;;;;8.29;69.24;99412.59;5032657;28;97076;-88
2023/03/13 06:28:29;;;;;;;14.48;6.90;;;;;;;8.32;69.21;99408.97;5026956;27;96955;-86
2023/03/13 06:30:55;;;;;;;18.05;7.38;;;;;;;8.37;68.84;99405.25;5015064;28;100209;-89
2023/03/13 06:33:20;;;;;;;17.45;6.90;;;;;;;8.25;68.74;99384.84;5005347;28;100667;-85
2023/03/13 06:35:46;;;;;;;12.98;6.40;;;;;;;8.44;68.91;99405.94;5013187;28;97229;-92
2023/03/13 06:38:12;;;;;;;15.38;7.85;;;;;;;8.45;68.60;99389.31;5009267;28;96835;-93
2023/03/13 06:40:37;;;;;;;15.45;7.10;;;;;;;8.47;68.52;99387.50;5025549;28;98490;-92
2023/03/13 06:43:03;;;;;;;14.20;7.28;;;;;;;8.57;68.53;99394.03;5033607;27;101136;-95
2023/03/13 06:45:28;;;;;;;14.27;6.68;;;;;;;8.70;68.39;99402.25;5019024;28;96946;-93
2023/03/13 06:47:54;;;;;;;14.65;7.57;;;;;;;8.60;68.32;99380.00;5016994;28;96907;-92
2023/03/13 06:50:22;;;;;;;12.45;6.13;;;;;;;8.70;68.28;99380.47;5048306;27;98294;-93
2023/03/13 06:52:50;;;;;;;15.45;7.10;;;;;;;8.70;68.39;99380.47;5018464;28;100131;-92
2023/03/13 06:55:16;;;;;;;12.60;6.28;;;;;;;8.50;68.41;99334.22;5026416;27;97181;-93
2023/03/13 06:57:44;;;;;;;14.13;6.25;;;;;;;8.82;67.90;99382.59;5035364;27;97075;-93
2023/03/13 07:00:10;;;;;;;13.38;5.80;;;;;;;8.79;68.18;99362.63;5017337;28;100982;-93
2023/03/13 07:02:36;;;;;;;12.77;5.65;;;;;;;8.84;67.87;99358.06;5016581;28;98367;-92
2023/03/13 07:05:04;;;;;;;13.73;5.57;;;;;;;8.81;67.51;99324.16;5031962;27;97038;-93
2023/03/13 07:07:32;;;;;;;15.73;5.32;;;;;;;8.95;67.45;99325.31;5014709;27;96808;-91
2023/03/13 07:09:58;;;;;;;11.70;5.03;;;;;;;9.32;66.43;99357.78;5014240;28;101133;-92
2023/03/13 07:12:26;;;;;;;15.77;5.55;;;;;;;9.49;66.82;99358.72;4994333;28;101435;-93
2023/03/13 07:14:51;;;;;;;16.92;5.45;;;;;;;9.46;66.15;99339.69;5027167;27;96861;-93
2023/03/13 07:17:17;;;;;;;13.07;5.35;;;;;;;9.42;65.95;99296.19;5031539;27;96849;-93
2023/03/13 07:19:46;;;;;;;17.65;5.93;;;;;;;9.85;65.70;99341.38;5014580;28;101537;-94
2023/03/13 07:22:11;;;;;;;16.70;5.32;;;;;;;10.00;65.31;99345.06;5012880;28;101327;-93
2023/03/13 07:24:37;;;;;;;15.80;5.30;;;;;;;9.83;64.88;99296.03;5016604;28;96825;-94
2023/03/13 07:27:03;;;;;;;10.50;4.22;;;;;;;10.18;64.11;99324.06;5020537;28;96263;-93
2023/03/13 07:29:28;;;;;;;15.63;5.45;;;;;;;10.24;64.67;99336.03;5050269;27;100257;-94
2023/03/13 07:31:54;;;;;;;13.85;5.13;;;;;;;10.43;64.49;99322.91;5017005;27;101590;-93
2023/03/13 07:34:22;;;;;;;13.95;5.03;;;;;;;10.80;63.51;99347.31;5019519;27;97189;-94
2023/03/13 07:36:47;;;;;;;9.05;3.85;;;;;;;10.58;63.22;99284.53;5038274;27;96870;-95
2023/03/13 07:39:16;;;;;;;13.65;4.65;;;;;;;10.90;62.79;99290.78;5020319;27;100032;-93
2023/03/13 07:41:42;;;;;;;10.93;4.63;;;;;;;11.05;62.02;99286.50;5013475;28;100938;-86
2023/03/13 07:44:07;;;;;;;10.70;4.22;;;;;;;11.14;62.40;99290.41;5030426;28;98041;-88
2023/03/13 07:46:33;;;;;;;12.23;4.20;;;;;;;11.04;62.10;99279.56;5025374;27;96913;-87
2023/03/13 07:48:59;;;;;;;14.23;4.85;;;;;;;11.19;62.19;99312.88;5015000;28;101336;-90
2023/03/13 07:51:25;;;;;;;13.52;4.95;;;;;;;11.19;62.18;99327.81;5033109;28;97487;-90
2023/03/13 07:53:52;;;;;;;12.05;4.72;;;;;;;10.92;62.87;99316.97;5005999;28;96785;-90
2023/03/13 07:56:19;;;;;;;15.65;4.07;;;;;;;10.94;62.68;99307.22;5031858;28;96904;-90
2023/03/13 07:58:45;;;;;;;15.32;4.20;;;;;;;11.05;62.67;99336.41;5027189;28;101434;-91
2023/03/13 08:01:26;;;;;;;12.50;3.85;;;;;;;10.84;62.80;99309.47;5014693;28;101255;-89
2023/03/13 08:03:53;;;;;;;10.02;4.28;;;;;;;10.82;63.22;99308.69;5014803;28;97088;-91
2023/03/13 08:06:23;;;;;;;14.32;4.50;;;;;;;10.77;63.27;99314.19;5012214;28;97414;-90
2023/03/13 08:08:50;;;;;;;12.32;4.43;;;;;;;10.76;63.66;99306.38;5026480;28;101435;-86
2023/03/13 08:11:16;;;;;;;21.10;5.13;;;;;;;10.94;63.06;99315.97;5027680;28;97698;-87
2023/03/13 08:13:42;;;;;;;13.27;4.88;;;;;;;10.92;63.00;99307.31;5032231;27;97131;-89
2023/03/13 08:16:10;;;;;;;13.32;4.75;;;;;;;10.83;63.29;99286.78;5024602;28;96945;-88
2023/03/13 08:18:37;;;;;;;16.00;4.90;;;;;;;10.90;63.31;99282.91;5025460;28;101445;-87
2023/03/13 08:21:05;;;;;;;13.32;4.15;;;;;;;11.03;63.39;99280.50;5021643;28;97972;-86
2023/03/13 08:23:32;;;;;;;11.77;4.35;;;;;;;11.01;63.20;99266.59;5030400;27;97145;-86
2023/03/13 08:26:09;;;;;;;10.98;4.25;;;;;;;11.02;63.31;99274.38;5026040;28;97138;-87
2023/03/13 08:28:36;;;;;;;12.65;4.43;;;;;;;10.96;63.33;99266.81;5019217;28;99991;-87
2023/03/13 08:31:19;;;;;;;15.10;3.85;;;;;;;10.99;63.43;99269.28;5009641;28;100980;-87
2023/03/13 08:33:45;;;;;;;17.77;4.80;;;;;;;11.24;63.03;99278.50;5025578;27;97219;-86
2023/03/13 08:36:20;;;;;;;12.43;3.83;;;;;;;11.09;62.62;99261.78;5028224;28;97435;-87
2023/03/13 08:38:46;;;;;;;10.82;3.17;;;;;;;11.17;62.88;99282.38;5011997;28;100312;-86
2023/03/13 08:41:18;;;;;;;12.10;4.05;;;;;;;11.10;63.01;99269.56;5005658;28;102032;-85
2023/03/13 08:43:44;;;;;;;10.65;3.92;;;;;;;10.96;62.83;99256.31;5027050;28;98001;-86
2023/03/13 08:46:09;;;;;;;9.90;3.38;;;;;;;11.16;62.69;99285.94;5025726;28;97280;-87
2023/03/13 08:48:35;;;;;;;11.68;4.13;;;;;;;11.06;62.78;99273.31;5001510;28;100228;-86
2023/03/13 08:51:09;;;;;;;11.00;4.00;;;;;;;11.03;62.56;99249.84;5008678;28;97921;-86
2023/03/13 08:53:36;;;;;;;11.43;4.07;;;;;;;11.14;62.47;99253.66;5031629;27;97146;-91
2023/03/13 08:56:03;;;;;;;16.23;3.60;;;;;;;11.24;62.72;99239.94;5009311;28;97162;-82
2023/03/13 08:58:29;;;;;;;9.38;3.47;;;;;;;11.36;62.12;99254.19;5011044;28;101264;-82
2023/03/13 09:01:20;;;;;;;12.18;3.60;;;;;;;11.39;62.16;99258.44;5026654;27;101544;-83
2023/03/13 09:03:45;;;;;;;12.95;3.55;;;;;;;11.36;62.66;99256.00;5025269;28;96911;-84
2023/03/13 09:06:11;;;;;;;9.75;3.53;;;;;;;11.33;62.33;99251.75;5002829;28;97394;-90
2023/03/13 09:08:38;;;;;;;12.45;3.60;;;;;;;11.16;62.60;99225.53;5013903;28;101782;-96
2023/03/13 09:11:12;;;;;;;9.93;3.45;;;;;;;11.33;62.46;99236.81;5010937;28;101066;-94
2023/03/13 09:13:41;;;;;;;13.52;4.82;;;;;;;11.37;62.33;99236.66;5030095;28;97174;-93
2023/03/13 09:16:09;;;;;;;14.13;3.83;;;;;;;11.38;62.50;99222.59;5031420;28;96668;-89
2023/03/13 09:18:35;;;;;;;11.23;3.70;;;;;;;11.42;61.94;99226.75;5027110;27;101743;-93
2023/03/13 09:21:00;;;;;;;12.70;3.85;;;;;;;11.39;62.47;99211.16;5014839;28;101284;-92
2023/03/13 09:23:27;;;;;;;13.45;3.30;;;;;;;11.40;62.33;99215.47;4997213;28;96879;-95
2023/03/13 09:25:54;;;;;;;8.70;3.53;;;;;;;11.50;62.18;99222.78;4996609;28;97012;-91
2023/03/13 09:28:20;;;;;;;14.30;3.53;;;;;;;11.63;62.58;99201.06;4996701;28;101362;-93
2023/03/13 09:30:48;;;;;;;15.25;3.55;;;;;;;11.67;61.45;99186.81;5007276;28;99130;-86
2023/03/13 09:33:15;;;;;;;12.52;3.53;;;;;;;11.75;62.01;99197.72;5026466;28;97211;-85
2023/03/13 09:35:40;;;;;;;18.70;4.05;;;;;;;11.77;61.16;99191.44;5018642;28;96940;-86
2023/03/13 09:38:06;;;;;;;14.38;3.70;;;;;;;11.78;61.15;99179.19;5015124;28;100136;-86
2023/03/13 09:40:41;;;;;;;10.45;4.07;;;;;;;11.83;61.01;99176.28;5006919;28;100970;-84
2023/03/13 09:43:31;;;;;;;12.68;3.53;;;;;;;11.81;60.96;99150.09;5022183;28;98069;-81
2023/03/13 09:46:00;;;;;;;12.98;4.35;;;;;;;11.68;61.05;99142.03;5006477;28;97346;-82
2023/03/13 09:48:36;;;;;;;14.77;4.40;;;;;;;11.83;61.52;99148.19;5028929;28;101464;-91
2023/03/13 09:51:22;;;;;;;13.63;3.25;;;;;;;11.74;60.69;99136.41;4996308;28;100187;-90
2023/03/13 09:53:57;;;;;;;15.02;3.45;;;;;;;11.66;60.50;99128.13;5032570;28;97897;-89
2023/03/13 09:56:25;;;;;;;13.00;3.38;;;;;;;11.68;60.63;99126.25;5014178;28;96892;-93
2023/03/13 09:59:15;;;;;;;8.90;3.15;;;;;;;11.58;60.55;99104.09;5000075;28;101139;-92
2023/03/13 10:01:42;;;;;;;13.60;3.70;;;;;;;11.56;60.30;99087.53;5031480;27;100488;-92
2023/03/13 10:04:30;;;;;;;10.88;3.85;;;;;;;11.69;59.93;99124.47;5025489;28;97135;-94
2023/03/13 10:06:55;;;;;;;8.63;3.05;;;;;;;11.67;60.07;99121.94;5029028;28;97772;-92
2023/03/13 10:09:30;;;;;;;9.98;3.13;;;;;;;11.61;59.82;99126.72;5016211;28;102017;-93
2023/03/13 10:12:23;;;;;;;9.13;3.20;;;;;;;11.60;60.24;99112.69;5021313;28;101344;-94
2023/03/13 10:15:16;;;;;;;8.38;2.95;;;;;;;11.53;61.26;99111.38;5014437;28;96898;-92
2023/03/13 10:17:41;;;;;;;13.80;3.53;;;;;;;11.49;61.57;99091.44;5034306;27;97431;-92
2023/03/13 10:20:26;;;;;;;12.32;3.70;;;;;;;11.45;62.50;99103.91;5055297;27;98535;-92
2023/03/13 10:23:23;;;;;;;10.35;2.63;;;;;;;11.38;62.45;99101.75;5019180;28;102165;-92
2023/03/13 10:25:48;;;;;;;10.10;3.03;;;;;;;11.27;63.49;99081.31;5026933;28;96822;-91
2023/03/13 10:28:19;;;;;;;8.23;3.58;;;;;;;11.25;64.02;99084.03;5030161;28;96788;-86
2023/03/13 10:30:57;;;;;;;11.95;3.10;;;;;;;11.25;64.48;99091.06;5013772;28;97366;-87
2023/03/13 10:33:26;;;;;;;6.47;2.63;;;;;;;11.10;64.71;99072.59;4999390;28;101507;-90
2023/03/13 10:36:10;;;;;;;15.02;3.55;;;;;;;11.07;65.08;99057.00;5034676;28;96826;-88
2023/03/13 10:38:50;;;;;;;10.07;3.30;;;;;;;11.14;65.58;99061.91;5012715;28;96862;-86
2023/03/13 10:41:29;;;;;;;14.77;3.33;;;;;;;11.09;66.23;99073.53;5030415;27;97628;-86
2023/03/13 10:43:59;;;;;;;11.40;3.60;;;;;;;11.14;66.32;99059.28;5025318;27;98214;-90
2023/03/13 10:46:34;;;;;;;8.37;3.00;;;;;;;11.23;65.99;99066.69;5011630;28;97211;-88
2023/03/13 10:49:02;;;;;;;8.57;3.25;;;;;;;11.20;66.02;99072.94;4996827;28;97289;-86
2023/03/13 10:51:38;;;;;;;12.17;3.40;;;;;;;11.20;65.83;99077.34;5018030;28;98530;-86
2023/03/13 10:54:22;;;;;;;15.05;3.38;;;;;;;11.19;66.54;99075.66;5027448;27;101571;-86
2023/03/13 10:56:49;;;;;;;10.68;4.07;;;;;;;11.08;66.67;99060.47;5013463;28;97171;-86
2023/03/13 10:59:24;;;;;;;9.90;2.50;;;;;;;11.16;66.92;99081.06;5025002;28;97601;-88
2023/03/13 11:01:51;;;;;;;12.13;3.10;;;;;;;11.16;67.25;99089.78;5014746;28;102008;-86
2023/03/13 11:04:32;;;;;;;10.52;2.90;;;;;;;11.11;67.46;99078.69;4995410;28;100401;-86
2023/03/13 11:07:05;;;;;;;9.60;3.45;;;;;;;11.19;67.83;99088.78;5010562;28;97003;-86
2023/03/13 11:09:32;;;;;;;12.82;3.13;;;;;;;11.17;68.06;99090.63;5014302;28;96814;-87
2023/03/13 11:12:17;;;;;;;13.20;3.00;;;;;;;11.17;68.21;99091.50;5012920;28;101366;-86
2023/03/13 11:14:44;;;;;;;10.00;4.03;;;;;;;11.22;68.36;99094.69;5028780;27;101228;-86
2023/03/13 11:17:28;;;;;;;15.88;3.45;;;;;;;11.05;68.54;99073.78;5010469;28;97367;-87
2023/03/13 11:20:03;;;;;;;11.00;3.70;;;;;;;11.20;68.42;99091.34;5029194;27;97220;-87
2023/03/13 11:22:50;;;;;;;9.50;2.92;;;;;;;11.22;68.67;99092.06;4997319;28;101460;-87
2023/03/13 11:25:32;;;;;;;12.48;4.10;;;;;;;11.21;68.57;99089.56;5027931;27;101868;-87
2023/03/13 11:28:02;;;;;;;;;;;;;;;11.25;68.43;99081.41;5020034;27;96901;-87
2023/03/13 11:30:43;;;;;;;11.15;3.40;;;;;;;11.26;68.39;99082.28;5015995;28;97078;-90
2023/03/13 11:33:28;;;;;;;11.85;3.63;;;;;;;11.31;68.67;99067.94;5015366;28;100018;-87
2023/03/13 11:36:08;;;;;;;12.73;3.58;;;;;;;11.30;68.17;99032.06;5012572;27;100286;-84
2023/03/13 11:38:40;;;;;;;11.65;3.60;;;;;;;11.41;67.37;99022.75;5045222;27;97356;-84
2023/03/13 11:41:15;;;;;;;15.88;4.00;;;;;;;11.60;67.45;99061.94;4986337;28;97074;-84
2023/03/13 11:43:50;;;;;;;12.40;3.95;;;;;;;11.61;66.88;99051.34;5019278;28;98937;-84
2023/03/13 11:46:44;;;;;;;9.15;3.40;;;;;;;11.64;66.88;99045.91;5008036;28;101447;-84
2023/03/13 11:49:50;;;;;;;9.90;3.08;;;;;;;11.64;66.62;99038.00;5023401;28;97105;-85
2023/03/13 11:52:30;;;;;;;10.25;3.47;;;;;;;11.63;66.90;99036.31;5010626;28;97248;-83